CSC8131 ZUCK-ZGDY
Flight info
| Callsign | CSC8131 |
|---|---|
| Flight time | 0h 46m |
| Altitude | 31100 |
| Route | GUTVI B213 KIGUM W240 ENH W139 DYG W194 LLC W138 RUKLI |
| Aircraft | A320/M-SDE3FGHIRWY/LB1 |
Departure
| Time | 2026-04-22 11:27 |
|---|---|
| Airport | Chongqing Jiangbei International Airport (ZUCK) |
Arrival
| Time | 2026-04-22 12:14 |
|---|---|
| Airport | Zhangjiajie Hehua International Airport (ZGDY) |
| Time | Latitude | Longitude | Altitude | Speed | Heading |
|---|---|---|---|---|---|
| 2026-04-22 10:53 | 29.71651 | 106.65530 | 1344 ft | 0 kts | 114° |
| 2026-04-22 11:16 | 29.71651 | 106.65529 | 1344 ft | 1 kts | 114° |
| 2026-04-22 11:16 | 29.71654 | 106.65522 | 1344 ft | 3 kts | 110° |
| 2026-04-22 11:16 | 29.71660 | 106.65493 | 1356 ft | 3 kts | 88° |
| 2026-04-22 11:17 | 29.71657 | 106.65470 | 1348 ft | 3 kts | 66° |
| 2026-04-22 11:17 | 29.71648 | 106.65451 | 1347 ft | 3 kts | 48° |
| 2026-04-22 11:17 | 29.71634 | 106.65435 | 1347 ft | 2 kts | 39° |
| 2026-04-22 11:17 | 29.71629 | 106.65430 | 1347 ft | 0 kts | 39° |
| 2026-04-22 11:19 | 29.71631 | 106.65433 | 1347 ft | 3 kts | 39° |
| 2026-04-22 11:20 | 29.71669 | 106.65456 | 1349 ft | 10 kts | 24° |
| 2026-04-22 11:20 | 29.71737 | 106.65486 | 1346 ft | 9 kts | 20° |
| 2026-04-22 11:20 | 29.71793 | 106.65506 | 1348 ft | 8 kts | 16° |
| 2026-04-22 11:20 | 29.71839 | 106.65523 | 1348 ft | 8 kts | 19° |
| 2026-04-22 11:21 | 29.71892 | 106.65544 | 1344 ft | 7 kts | 18° |
| 2026-04-22 11:21 | 29.71930 | 106.65569 | 1346 ft | 6 kts | 57° |
| 2026-04-22 11:21 | 29.71921 | 106.65613 | 1343 ft | 7 kts | 108° |
| 2026-04-22 11:21 | 29.71900 | 106.65690 | 1343 ft | 13 kts | 107° |
| 2026-04-22 11:22 | 29.71866 | 106.65815 | 1339 ft | 20 kts | 107° |
| 2026-04-22 11:22 | 29.71838 | 106.65921 | 1337 ft | 8 kts | 107° |
| 2026-04-22 11:22 | 29.71807 | 106.65959 | 1338 ft | 6 kts | 179° |
| 2026-04-22 11:22 | 29.71766 | 106.65945 | 1337 ft | 8 kts | 196° |
| 2026-04-22 11:23 | 29.71700 | 106.65924 | 1338 ft | 12 kts | 195° |
| 2026-04-22 11:23 | 29.71602 | 106.65891 | 1338 ft | 14 kts | 196° |
| 2026-04-22 11:23 | 29.71536 | 106.65871 | 1338 ft | 7 kts | 187° |
| 2026-04-22 11:23 | 29.71509 | 106.65905 | 1338 ft | 6 kts | 103° |
| 2026-04-22 11:24 | 29.71497 | 106.65957 | 1337 ft | 9 kts | 106° |
| 2026-04-22 11:24 | 29.71482 | 106.66017 | 1337 ft | 0 kts | 106° |
| 2026-04-22 11:25 | 29.71473 | 106.66049 | 1340 ft | 8 kts | 106° |
| 2026-04-22 11:25 | 29.71456 | 106.66119 | 1338 ft | 6 kts | 104° |
| 2026-04-22 11:25 | 29.71471 | 106.66153 | 1340 ft | 4 kts | 36° |
| 2026-04-22 11:26 | 29.71490 | 106.66161 | 1337 ft | 0 kts | 17° |
| 2026-04-22 11:26 | 29.71679 | 106.66226 | 1336 ft | 65 kts | 16° |
| 2026-04-22 11:27 | 29.72327 | 106.66449 | 1329 ft | 126 kts | 17° |
| 2026-04-22 11:27 | 29.73321 | 106.66801 | 1361 ft | 168 kts | 15° |
| 2026-04-22 11:27 | 29.74406 | 106.67191 | 2089 ft | 161 kts | 16° |
| 2026-04-22 11:27 | 29.75473 | 106.67567 | 2795 ft | 158 kts | 16° |
| 2026-04-22 11:28 | 29.76523 | 106.67958 | 3255 ft | 169 kts | 23° |
| 2026-04-22 11:28 | 29.77611 | 106.68673 | 3492 ft | 191 kts | 30° |
| 2026-04-22 11:28 | 29.78815 | 106.69514 | 3727 ft | 215 kts | 30° |
| 2026-04-22 11:28 | 29.80169 | 106.70458 | 4082 ft | 240 kts | 30° |
| 2026-04-22 11:29 | 29.81657 | 106.71497 | 4581 ft | 257 kts | 30° |
| 2026-04-22 11:29 | 29.83204 | 106.72577 | 5358 ft | 263 kts | 29° |
| 2026-04-22 11:29 | 29.84781 | 106.73681 | 6199 ft | 267 kts | 29° |
| 2026-04-22 11:29 | 29.86378 | 106.74800 | 6979 ft | 271 kts | 29° |
| 2026-04-22 11:30 | 29.87936 | 106.76039 | 7786 ft | 276 kts | 40° |
| 2026-04-22 11:30 | 29.89136 | 106.77782 | 8638 ft | 281 kts | 59° |
| 2026-04-22 11:30 | 29.89986 | 106.79825 | 9481 ft | 284 kts | 63° |
| 2026-04-22 11:30 | 29.90829 | 106.81896 | 10245 ft | 287 kts | 62° |
| 2026-04-22 11:31 | 29.91686 | 106.83995 | 10788 ft | 293 kts | 62° |
| 2026-04-22 11:31 | 29.92584 | 106.86184 | 11071 ft | 313 kts | 62° |
| 2026-04-22 11:31 | 29.93553 | 106.88544 | 11242 ft | 337 kts | 62° |
| 2026-04-22 11:31 | 29.94587 | 106.91064 | 11435 ft | 357 kts | 63° |
| 2026-04-22 11:32 | 29.95664 | 106.93686 | 11941 ft | 365 kts | 61° |
| 2026-04-22 11:32 | 29.97050 | 106.96152 | 12559 ft | 367 kts | 49° |
| 2026-04-22 11:32 | 29.98855 | 106.98240 | 13191 ft | 370 kts | 37° |
| 2026-04-22 11:32 | 30.01024 | 106.99842 | 13815 ft | 372 kts | 24° |
| 2026-04-22 11:33 | 30.03462 | 107.00838 | 14363 ft | 374 kts | 11° |
| 2026-04-22 11:33 | 30.06053 | 107.01175 | 14917 ft | 376 kts | 0° |
| 2026-04-22 11:33 | 30.08675 | 107.01284 | 15462 ft | 380 kts | 0° |
| 2026-04-22 11:33 | 30.11332 | 107.01387 | 15994 ft | 384 kts | 360° |
| 2026-04-22 11:34 | 30.14012 | 107.01487 | 16521 ft | 387 kts | 359° |
| 2026-04-22 11:34 | 30.16718 | 107.01589 | 17040 ft | 391 kts | 359° |
| 2026-04-22 11:34 | 30.19446 | 107.01695 | 17549 ft | 395 kts | 359° |
| 2026-04-22 11:34 | 30.22206 | 107.01808 | 18047 ft | 398 kts | 359° |
| 2026-04-22 11:35 | 30.24989 | 107.01927 | 18500 ft | 402 kts | 359° |
| 2026-04-22 11:35 | 30.27798 | 107.02047 | 18936 ft | 405 kts | 359° |
| 2026-04-22 11:35 | 30.30623 | 107.02202 | 19338 ft | 409 kts | 3° |
| 2026-04-22 11:35 | 30.33438 | 107.02856 | 19748 ft | 417 kts | 14° |
| 2026-04-22 11:36 | 30.36133 | 107.04177 | 20169 ft | 425 kts | 26° |
| 2026-04-22 11:36 | 30.38583 | 107.06142 | 20606 ft | 433 kts | 38° |
| 2026-04-22 11:36 | 30.40777 | 107.08566 | 21048 ft | 438 kts | 41° |
| 2026-04-22 11:36 | 30.42963 | 107.11042 | 21468 ft | 441 kts | 41° |
| 2026-04-22 11:37 | 30.44958 | 107.13708 | 21824 ft | 449 kts | 54° |
| 2026-04-22 11:37 | 30.46347 | 107.16974 | 22195 ft | 456 kts | 71° |
| 2026-04-22 11:37 | 30.46950 | 107.20589 | 22576 ft | 461 kts | 87° |
| 2026-04-22 11:37 | 30.46702 | 107.24291 | 22928 ft | 463 kts | 104° |
| 2026-04-22 11:38 | 30.45600 | 107.27790 | 23309 ft | 463 kts | 121° |
| 2026-04-22 11:38 | 30.43735 | 107.30802 | 23642 ft | 460 kts | 137° |
| 2026-04-22 11:38 | 30.38550 | 107.35040 | 24259 ft | 458 kts | 153° |
| 2026-04-22 11:39 | 30.35819 | 107.36956 | 24573 ft | 461 kts | 153° |
| 2026-04-22 11:39 | 30.33065 | 107.38884 | 24861 ft | 463 kts | 153° |
| 2026-04-22 11:39 | 30.30294 | 107.40823 | 25140 ft | 466 kts | 153° |
| 2026-04-22 11:39 | 30.27514 | 107.42769 | 25436 ft | 469 kts | 153° |
| 2026-04-22 11:40 | 30.24710 | 107.44734 | 25732 ft | 472 kts | 153° |
| 2026-04-22 11:40 | 30.21899 | 107.46710 | 26032 ft | 474 kts | 153° |
| 2026-04-22 11:40 | 30.19110 | 107.48670 | 26322 ft | 476 kts | 153° |
| 2026-04-22 11:40 | 30.16275 | 107.50662 | 26601 ft | 478 kts | 153° |
| 2026-04-22 11:41 | 30.13426 | 107.52663 | 26883 ft | 480 kts | 153° |
| 2026-04-22 11:41 | 30.10563 | 107.54673 | 27159 ft | 482 kts | 154° |
| 2026-04-22 11:41 | 30.07687 | 107.56688 | 27429 ft | 484 kts | 154° |
| 2026-04-22 11:41 | 30.04797 | 107.58706 | 27689 ft | 486 kts | 154° |
| 2026-04-22 11:42 | 30.01901 | 107.60724 | 27951 ft | 488 kts | 154° |
| 2026-04-22 11:42 | 29.99003 | 107.62770 | 28212 ft | 492 kts | 151° |
| 2026-04-22 11:42 | 29.96362 | 107.65342 | 28487 ft | 503 kts | 136° |
| 2026-04-22 11:42 | 29.94289 | 107.68624 | 28831 ft | 511 kts | 122° |
| 2026-04-22 11:43 | 29.92934 | 107.72431 | 29130 ft | 517 kts | 107° |
| 2026-04-22 11:43 | 29.92411 | 107.76530 | 29418 ft | 520 kts | 91° |
| 2026-04-22 11:43 | 29.92769 | 107.80674 | 29746 ft | 519 kts | 75° |
| 2026-04-22 11:43 | 29.93742 | 107.84670 | 30058 ft | 519 kts | 72° |
| 2026-04-22 11:44 | 29.94764 | 107.88670 | 30342 ft | 520 kts | 72° |
| 2026-04-22 11:44 | 29.95790 | 107.92673 | 30661 ft | 520 kts | 72° |
| 2026-04-22 11:44 | 29.96812 | 107.96670 | 30931 ft | 521 kts | 72° |
| 2026-04-22 11:44 | 29.97832 | 108.00682 | 31072 ft | 522 kts | 72° |
| 2026-04-22 11:45 | 29.99852 | 108.08746 | 31104 ft | 523 kts | 72° |
| 2026-04-22 11:45 | 30.01852 | 108.16808 | 31114 ft | 523 kts | 72° |
| 2026-04-22 11:46 | 30.03869 | 108.24881 | 31101 ft | 523 kts | 72° |
| 2026-04-22 11:46 | 30.05894 | 108.32932 | 31113 ft | 523 kts | 72° |
| 2026-04-22 11:47 | 30.07900 | 108.40930 | 31099 ft | 522 kts | 72° |
| 2026-04-22 11:47 | 30.09899 | 108.48981 | 31090 ft | 522 kts | 72° |
| 2026-04-22 11:48 | 30.11897 | 108.57045 | 31091 ft | 522 kts | 72° |
| 2026-04-22 11:48 | 30.14103 | 108.65010 | 31097 ft | 521 kts | 69° |
| 2026-04-22 11:49 | 30.16501 | 108.72897 | 31106 ft | 521 kts | 68° |
| 2026-04-22 11:49 | 30.18891 | 108.80823 | 31098 ft | 522 kts | 69° |
| 2026-04-22 11:50 | 30.21200 | 108.88776 | 31102 ft | 522 kts | 70° |
| 2026-04-22 11:50 | 30.22749 | 108.96973 | 31104 ft | 523 kts | 83° |
| 2026-04-22 11:51 | 30.23593 | 109.05326 | 31093 ft | 524 kts | 82° |
| 2026-04-22 11:51 | 30.24478 | 109.13697 | 31087 ft | 524 kts | 82° |
| 2026-04-22 11:52 | 30.25345 | 109.22066 | 31084 ft | 524 kts | 83° |
| 2026-04-22 11:52 | 30.26186 | 109.30397 | 31084 ft | 525 kts | 83° |
| 2026-04-22 11:53 | 30.27025 | 109.38780 | 31077 ft | 525 kts | 83° |
| 2026-04-22 11:53 | 30.27448 | 109.42978 | 30843 ft | 525 kts | 83° |
| 2026-04-22 11:53 | 30.27818 | 109.47186 | 30584 ft | 525 kts | 88° |
| 2026-04-22 11:54 | 30.27636 | 109.51396 | 30364 ft | 522 kts | 100° |
| 2026-04-22 11:54 | 30.26787 | 109.55448 | 30124 ft | 518 kts | 112° |
| 2026-04-22 11:54 | 30.25324 | 109.59221 | 29858 ft | 512 kts | 123° |
| 2026-04-22 11:54 | 30.23326 | 109.62582 | 29591 ft | 505 kts | 135° |
| 2026-04-22 11:55 | 30.20895 | 109.65475 | 28681 ft | 496 kts | 144° |
| 2026-04-22 11:55 | 30.18108 | 109.67730 | 27501 ft | 480 kts | 155° |
| 2026-04-22 11:55 | 30.15240 | 109.69607 | 26595 ft | 468 kts | 155° |
| 2026-04-22 11:55 | 30.12470 | 109.71454 | 25984 ft | 451 kts | 154° |
| 2026-04-22 11:56 | 30.09772 | 109.73274 | 25300 ft | 448 kts | 154° |
| 2026-04-22 11:56 | 30.07104 | 109.75084 | 24624 ft | 443 kts | 153° |
| 2026-04-22 11:56 | 30.04449 | 109.76889 | 23955 ft | 443 kts | 153° |
| 2026-04-22 11:56 | 30.01794 | 109.78691 | 23225 ft | 442 kts | 153° |
| 2026-04-22 11:57 | 29.99150 | 109.80485 | 22576 ft | 439 kts | 153° |
| 2026-04-22 11:57 | 29.96523 | 109.82264 | 21950 ft | 436 kts | 153° |
| 2026-04-22 11:57 | 29.93913 | 109.84024 | 21333 ft | 434 kts | 153° |
| 2026-04-22 11:57 | 29.91309 | 109.85775 | 20727 ft | 432 kts | 153° |
| 2026-04-22 11:58 | 29.88717 | 109.87514 | 20132 ft | 430 kts | 153° |
| 2026-04-22 11:58 | 29.86172 | 109.89219 | 19565 ft | 428 kts | 153° |
| 2026-04-22 11:58 | 29.83603 | 109.90940 | 19002 ft | 426 kts | 152° |
| 2026-04-22 11:58 | 29.81051 | 109.92654 | 18448 ft | 424 kts | 152° |
| 2026-04-22 11:59 | 29.78512 | 109.94363 | 17849 ft | 422 kts | 152° |
| 2026-04-22 11:59 | 29.75986 | 109.96067 | 17332 ft | 418 kts | 152° |
| 2026-04-22 11:59 | 29.73486 | 109.97753 | 16824 ft | 414 kts | 152° |
| 2026-04-22 11:59 | 29.71017 | 109.99409 | 16317 ft | 410 kts | 152° |
| 2026-04-22 12:00 | 29.68550 | 110.01058 | 15794 ft | 407 kts | 152° |
| 2026-04-22 12:00 | 29.66106 | 110.02687 | 15283 ft | 405 kts | 152° |
| 2026-04-22 12:00 | 29.63671 | 110.04310 | 14724 ft | 403 kts | 152° |
| 2026-04-22 12:00 | 29.61249 | 110.05927 | 14183 ft | 402 kts | 152° |
| 2026-04-22 12:01 | 29.58836 | 110.07542 | 13583 ft | 402 kts | 152° |
| 2026-04-22 12:01 | 29.56437 | 110.09148 | 13169 ft | 394 kts | 151° |
| 2026-04-22 12:01 | 29.54113 | 110.10704 | 13076 ft | 379 kts | 151° |
| 2026-04-22 12:01 | 29.51878 | 110.12200 | 12954 ft | 365 kts | 151° |
| 2026-04-22 12:02 | 29.49714 | 110.13647 | 12795 ft | 354 kts | 151° |
| 2026-04-22 12:02 | 29.47619 | 110.15043 | 12616 ft | 344 kts | 151° |
| 2026-04-22 12:02 | 29.45567 | 110.16411 | 12412 ft | 336 kts | 151° |
| 2026-04-22 12:02 | 29.43587 | 110.17737 | 12328 ft | 325 kts | 151° |
| 2026-04-22 12:03 | 29.41646 | 110.19037 | 12033 ft | 320 kts | 152° |
| 2026-04-22 12:03 | 29.39614 | 110.19878 | 11666 ft | 305 kts | 174° |
| 2026-04-22 12:03 | 29.37557 | 110.19832 | 11311 ft | 290 kts | 195° |
| 2026-04-22 12:03 | 29.35680 | 110.19238 | 10989 ft | 278 kts | 199° |
| 2026-04-22 12:04 | 29.33829 | 110.18634 | 10662 ft | 269 kts | 198° |
| 2026-04-22 12:04 | 29.32073 | 110.18065 | 10352 ft | 262 kts | 198° |
| 2026-04-22 12:04 | 29.30341 | 110.17503 | 10036 ft | 256 kts | 198° |
| 2026-04-22 12:04 | 29.29183 | 110.17128 | 9814 ft | 257 kts | 198° |
| 2026-04-22 12:05 | 29.26910 | 110.16390 | 9390 ft | 256 kts | 198° |
| 2026-04-22 12:05 | 29.25199 | 110.15834 | 9086 ft | 254 kts | 198° |
| 2026-04-22 12:05 | 29.23507 | 110.15286 | 8788 ft | 252 kts | 198° |
| 2026-04-22 12:05 | 29.21814 | 110.14737 | 8482 ft | 253 kts | 198° |
| 2026-04-22 12:06 | 29.20124 | 110.14189 | 8190 ft | 253 kts | 198° |
| 2026-04-22 12:06 | 29.18426 | 110.13641 | 7889 ft | 254 kts | 197° |
| 2026-04-22 12:06 | 29.16729 | 110.13103 | 7604 ft | 253 kts | 194° |
| 2026-04-22 12:06 | 29.14960 | 110.12949 | 7205 ft | 259 kts | 176° |
| 2026-04-22 12:07 | 29.13167 | 110.13134 | 6763 ft | 257 kts | 175° |
| 2026-04-22 12:07 | 29.11990 | 110.13255 | 6485 ft | 256 kts | 176° |
| 2026-04-22 12:07 | 29.09653 | 110.13493 | 5978 ft | 249 kts | 175° |
| 2026-04-22 12:07 | 29.07971 | 110.13835 | 5618 ft | 242 kts | 159° |
| 2026-04-22 12:08 | 29.06575 | 110.14755 | 5439 ft | 228 kts | 138° |
| 2026-04-22 12:08 | 29.05843 | 110.15616 | 5408 ft | 220 kts | 126° |
| 2026-04-22 12:08 | 29.05103 | 110.17107 | 5250 ft | 212 kts | 108° |
| 2026-04-22 12:08 | 29.04799 | 110.18693 | 5115 ft | 200 kts | 91° |
| 2026-04-22 12:09 | 29.04994 | 110.20711 | 4925 ft | 187 kts | 74° |
| 2026-04-22 12:09 | 29.05208 | 110.21656 | 4774 ft | 184 kts | 74° |
| 2026-04-22 12:09 | 29.05530 | 110.23085 | 4513 ft | 182 kts | 74° |
| 2026-04-22 12:09 | 29.05840 | 110.24462 | 4257 ft | 181 kts | 74° |
| 2026-04-22 12:10 | 29.06156 | 110.25868 | 3998 ft | 179 kts | 74° |
| 2026-04-22 12:10 | 29.06460 | 110.27224 | 3747 ft | 179 kts | 75° |
| 2026-04-22 12:10 | 29.06772 | 110.28611 | 3491 ft | 175 kts | 75° |
| 2026-04-22 12:10 | 29.07063 | 110.29912 | 3248 ft | 168 kts | 75° |
| 2026-04-22 12:11 | 29.07343 | 110.31157 | 3033 ft | 156 kts | 75° |
| 2026-04-22 12:11 | 29.07604 | 110.32323 | 2796 ft | 149 kts | 76° |
| 2026-04-22 12:11 | 29.07858 | 110.33456 | 2560 ft | 146 kts | 76° |
| 2026-04-22 12:11 | 29.08108 | 110.34572 | 2358 ft | 145 kts | 76° |
| 2026-04-22 12:12 | 29.08357 | 110.35683 | 2141 ft | 144 kts | 76° |
| 2026-04-22 12:12 | 29.08606 | 110.36796 | 1933 ft | 144 kts | 76° |
| 2026-04-22 12:12 | 29.08853 | 110.37905 | 1726 ft | 144 kts | 76° |
| 2026-04-22 12:12 | 29.09097 | 110.39008 | 1558 ft | 143 kts | 76° |
| 2026-04-22 12:13 | 29.09340 | 110.40111 | 1324 ft | 141 kts | 76° |
| 2026-04-22 12:13 | 29.09596 | 110.41202 | 1110 ft | 142 kts | 76° |
| 2026-04-22 12:13 | 29.09842 | 110.42295 | 918 ft | 141 kts | 77° |
| 2026-04-22 12:13 | 29.10085 | 110.43382 | 751 ft | 138 kts | 75° |
| 2026-04-22 12:14 | 29.10266 | 110.44237 | 719 ft | 71 kts | 75° |
| 2026-04-22 12:14 | 29.10333 | 110.44525 | 711 ft | 10 kts | 76° |
| 2026-04-22 12:14 | 29.10390 | 110.44533 | 717 ft | 8 kts | 344° |
| 2026-04-22 12:14 | 29.10431 | 110.44521 | 713 ft | 5 kts | 345° |
| 2026-04-22 12:15 | 29.10463 | 110.44511 | 713 ft | 4 kts | 345° |
| 2026-04-22 12:15 | 29.10485 | 110.44490 | 710 ft | 4 kts | 297° |
| 2026-04-22 12:15 | 29.10481 | 110.44457 | 715 ft | 5 kts | 249° |
| 2026-04-22 12:15 | 29.10468 | 110.44403 | 711 ft | 9 kts | 255° |
| 2026-04-22 12:16 | 29.10451 | 110.44325 | 718 ft | 7 kts | 257° |
| 2026-04-22 12:16 | 29.10457 | 110.44283 | 721 ft | 4 kts | 316° |
| 2026-04-22 12:16 | 29.10478 | 110.44277 | 718 ft | 3 kts | 348° |
| 2026-04-22 12:16 | 29.10507 | 110.44273 | 717 ft | 6 kts | 10° |
| 2026-04-22 12:17 | 29.10546 | 110.44289 | 716 ft | 6 kts | 1° |
| 2026-04-22 12:17 | 29.10582 | 110.44262 | 712 ft | 4 kts | 323° |
| 2026-04-22 12:17 | 29.10600 | 110.44247 | 719 ft | 2 kts | 324° |
| 2026-04-22 12:17 | 29.10601 | 110.44246 | 719 ft | 0 kts | 324° |